Normanna, Texas
Current Conditions -  °F | °C
As of 5:15 AM on Monday 20 Oct 2014 (Local Time) from KBEA Reporting Station
Haze Haze  
Wind Chill: 67°   Ceiling: Unl
Heat Index: 67°   Visibility: 5mi
Dew Point: 67°   Wind: 7mph
Humidity: 100%   Direction: 40°NE
Pressure: 29.97"   Gusts: NA
Location:  28.53°N, 97.78°W
Report Text: KBEA 201015Z AUTO 04006KT 5SM BR CLR 20/20 A2997 RMK AO2 T01970197
Loading
Personal Weather Stations






























Interactive Weather Map
Tropical Storm Tracking
New forecast layout! Learn more

10-Day Weather Forecast

Advertisements
Track Severe Weather on mobile